Aeroporto :
LOGIN :

Iscrizione | Disclaimer

   EN    FR    IT 

 










Sommario :    VFR   VFR Marginale   IFR   IFR Intensivo   IFR Molto Intensivo
Visibilità : 
Base nubi : 
>= 8 km
>= 3000ft
5 / 8 km
1000 / 3000 ft
1500m / 5 km
500 / 1000 ft
800 / 1500m
200 / 500 ft
< 800m
< 200 ft
Simboli :   Temporali  Nebbia  Neve Forte  Precipitazioni Forti  Vento > 20 kt
SIGMETs :   Varie  Temporali  Ghiacco  Turbolenza  Onda orograficha  Ceneri Vulcaniche







- Altitudine del aeroporto : 63 ft
- Codice IATA : BZM


EHWO - Woensdrecht Airbase

ULTIMO METAR :
  • 240725Z AUTO 25006KT 230V310 9999 OVC130 17/08 Q1015 BLU 28007KT CAVOK

METARs OBSOLETI :
  • 240700Z AUTO 28007KT 230V320 9999 OVC130 16/09 Q1015 BLU 28007KT CAVOK
  • 240655Z AUTO 27007KT 230V300 9999 SCT075 OVC130 15/08 Q1015 BLU VRB01KT CAVOK BECMG 25005KT
  • 240625Z AUTO 25007KT 220V290 9999 FEW072 BKN130 16/07 Q1015 BLU VRB01KT CAVOK BECMG 25005KT
  • 240555Z AUTO 23004KT 200V270 9999 BKN066 OVC076 15/09 Q1015 BLU VRB01KT CAVOK BECMG 25005KT
  • 240525Z AUTO 02001KT 9999 BKN071 OVC077 13/11 Q1015 BLU VRB01KT CAVOK BECMG 25005KT
  • 240455Z AUTO 02001KT 9999 OVC071 10/09 Q1014 BLU

TAF TAF EHWO
Valido dal 24 a 05 ore il 24 a 17 ore UTC


240442Z 2405/2417 VRB02KT CAVOK
BECMG 2405/2407 25006KT
BECMG 2411/2413 32010KT
TEMPO 2412/2417 33010G22KT
Nessun NOTAM noto per questo aeroporto.



MetMap, La meteo Aeronautica in un colpo d'occhio ! - Copyright ORBIFLY Dicembre 2007 - Disclaimer

ORBIFLY MET'MAP TEAM :

Programmazione e sviluppo : Alexandra Zaïnal
Concezione e sviluppo : Baudouin d'Aumeries
Co-Programmazione e sviluppo : Marc-Olivier Méhu
Supporto tecnico e logistico : Manuel Goepfert
Aiuto per la traduzione : Arnaldo La Scala

Contatto : metmap@orbifly.com




FONTI E CREDITI :

   NOAA